Time;durP1;ratioP1;P1;durP2;ratioP2;P2;SDS_P1;SDS_P2;PMS_P1;PMS_P2;Temp;Humidity;BMP_temperature;BMP_pressure;BME280_temperature;BME280_humidity;BME280_pressure;Samples;Min_cycle;Max_cycle;Signal;HPM_P1;HPM_P2
2022/05/24 00:00:33;;;;;;;88.88;59.42;;;13.30;99.90;;;;;;5004007;28;20058;-79
2022/05/24 00:03:03;;;;;;;79.60;53.67;;;13.30;99.90;;;;;;5017672;28;20052;-77
2022/05/24 00:05:35;;;;;;;87.43;58.58;;;13.30;99.90;;;;;;5044535;28;20490;-75
2022/05/24 00:08:04;;;;;;;78.43;55.42;;;13.20;99.90;;;;;;4993390;28;20077;-77
2022/05/24 00:10:36;;;;;;;76.38;54.05;;;13.20;99.90;;;;;;4986174;28;20065;-78
2022/05/24 00:13:04;;;;;;;73.28;52.65;;;13.20;99.90;;;;;;5029104;28;20061;-78
2022/05/24 00:15:32;;;;;;;73.45;50.38;;;13.30;99.90;;;;;;4999005;28;20045;-78
2022/05/24 00:18:03;;;;;;;75.72;54.63;;;13.20;99.90;;;;;;4988003;28;20053;-78
2022/05/24 00:20:35;;;;;;;72.70;51.63;;;13.20;99.90;;;;;;5003966;28;20411;-77
2022/05/24 00:23:03;;;;;;;81.97;53.53;;;13.20;99.90;;;;;;4987309;28;20120;-76
2022/05/24 00:25:34;;;;;;;70.88;51.58;;;13.20;99.90;;;;;;5003152;28;20049;-78
2022/05/24 00:28:01;;;;;;;67.97;51.33;;;13.20;99.90;;;;;;4987348;28;20046;-77
2022/05/24 00:30:28;;;;;;;71.10;49.83;;;13.20;99.90;;;;;;5006251;28;20054;-77
2022/05/24 00:32:57;;;;;;;64.25;46.15;;;13.20;99.90;;;;;;5005074;28;20042;-78
2022/05/24 00:35:24;;;;;;;63.75;46.35;;;13.00;99.90;;;;;;5001939;28;20050;-78
2022/05/24 00:37:51;;;;;;;63.53;46.58;;;13.10;99.90;;;;;;5004458;28;20098;-77
2022/05/24 00:40:46;;;;;;;61.47;44.70;;;13.00;99.90;;;;;;5005819;28;20056;-78
2022/05/24 00:43:24;;;;;;;62.50;43.72;;;13.00;99.90;;;;;;4997359;28;20058;-78
2022/05/24 00:45:56;;;;;;;63.15;43.10;;;13.00;99.90;;;;;;5007103;28;20041;-79
2022/05/24 00:48:28;;;;;;;67.97;47.13;;;13.00;99.90;;;;;;5003906;28;20061;-77
2022/05/24 00:50:56;;;;;;;62.97;46.03;;;13.00;99.90;;;;;;5006590;28;20085;-77
2022/05/24 00:53:29;;;;;;;66.30;47.38;;;13.00;99.90;;;;;;5025337;28;20342;-76
2022/05/24 00:56:13;;;;;;;66.47;46.25;;;13.00;99.90;;;;;;4993368;28;20041;-77
2022/05/24 00:58:58;;;;;;;65.13;47.35;;;12.90;99.90;;;;;;4982567;28;20061;-76
2022/05/24 01:01:33;;;;;;;;;;;12.90;99.90;;;;;;5016190;28;20057;-77
2022/05/24 01:04:00;;;;;;;65.13;45.78;;;12.90;99.90;;;;;;4991687;28;19921;-78
2022/05/24 01:06:31;;;;;;;69.07;47.15;;;12.90;99.90;;;;;;5015801;28;20041;-79
2022/05/24 01:09:01;;;;;;;71.25;47.88;;;12.90;99.90;;;;;;4993879;28;20093;-77
2022/05/24 01:11:32;;;;;;;74.18;49.85;;;12.90;99.90;;;;;;5009159;28;20509;-77
2022/05/24 01:14:01;;;;;;;74.20;48.78;;;12.90;99.90;;;;;;4991474;28;20057;-76
2022/05/24 01:16:27;;;;;;;73.85;48.22;;;12.90;99.90;;;;;;4997034;28;20049;-78
2022/05/24 01:18:54;;;;;;;76.30;50.47;;;12.90;99.90;;;;;;5008145;28;20514;-76
2022/05/24 01:21:22;;;;;;;79.10;50.25;;;12.90;99.90;;;;;;5007795;28;20070;-78
2022/05/24 01:24:13;;;;;;;79.40;51.28;;;12.80;99.90;;;;;;4975325;28;20053;-79
2022/05/24 01:26:57;;;;;;;84.05;52.03;;;12.80;99.90;;;;;;5008882;28;20072;-78
2022/05/24 01:29:26;;;;;;;83.55;52.97;;;12.80;99.90;;;;;;4996624;28;20057;-77
2022/05/24 01:37:29;;;;;;;;;;;12.90;99.90;;;;;;4999391;28;21750;-75
2022/05/24 01:39:58;;;;;;;89.45;53.60;;;12.90;99.90;;;;;;4991569;28;19925;-76
2022/05/24 01:42:26;;;;;;;97.45;59.03;;;12.80;99.90;;;;;;5026414;28;20049;-75
2022/05/24 01:45:04;;;;;;;95.72;59.10;;;12.80;99.90;;;;;;4990698;28;20061;-80
2022/05/24 01:47:34;;;;;;;93.53;57.92;;;12.80;99.90;;;;;;5002354;28;20061;-75
2022/05/24 01:50:06;;;;;;;95.50;55.80;;;12.80;99.90;;;;;;5011284;28;20045;-77
2022/05/24 01:52:59;;;;;;;89.05;52.40;;;12.90;99.90;;;;;;4981115;28;20048;-77
2022/05/24 01:55:34;;;;;;;82.80;50.60;;;12.90;99.90;;;;;;4985617;28;20069;-77
2022/05/24 01:58:08;;;;;;;84.40;52.70;;;12.80;99.90;;;;;;4988685;28;20049;-77
2022/05/24 02:00:35;;;;;;;86.18;52.08;;;12.80;99.90;;;;;;4991020;28;20037;-78
2022/05/24 02:03:02;;;;;;;87.20;53.20;;;12.80;99.90;;;;;;5003683;28;20046;-77
2022/05/24 02:05:38;;;;;;;88.65;53.17;;;12.80;99.90;;;;;;5005260;28;20041;-76
2022/05/24 02:08:11;;;;;;;89.35;52.50;;;12.70;99.90;;;;;;5009412;28;20080;-77
2022/05/24 02:10:51;;;;;;;77.82;47.75;;;12.80;99.90;;;;;;5027595;28;20056;-79
2022/05/24 02:13:58;;;;;;;85.18;49.55;;;12.70;99.90;;;;;;4998639;28;20049;-77
2022/05/24 02:16:32;;;;;;;78.53;45.50;;;12.70;99.90;;;;;;4977536;28;20061;-77
2022/05/24 02:19:02;;;;;;;72.32;45.28;;;12.70;99.90;;;;;;4978850;28;20507;-78
2022/05/24 02:21:32;;;;;;;72.78;46.92;;;12.70;99.90;;;;;;4990286;28;20450;-79
2022/05/24 02:23:59;;;;;;;82.35;49.05;;;12.70;99.90;;;;;;4990229;28;20054;-78
2022/05/24 02:26:28;;;;;;;77.57;45.78;;;12.70;99.90;;;;;;5007335;28;20049;-76
2022/05/24 02:28:55;;;;;;;78.75;47.85;;;12.70;99.90;;;;;;5004455;28;20097;-78
2022/05/24 02:31:26;;;;;;;74.53;47.25;;;12.80;99.90;;;;;;4998578;28;20042;-76
2022/05/24 02:33:53;;;;;;;78.35;45.75;;;12.80;99.90;;;;;;5023393;28;20089;-77
2022/05/24 02:36:20;;;;;;;73.43;45.88;;;12.80;99.90;;;;;;5007766;28;20115;-76
2022/05/24 02:38:47;;;;;;;76.97;46.92;;;12.80;99.90;;;;;;5032934;28;20046;-79
2022/05/24 02:41:29;;;;;;;72.63;46.45;;;12.70;99.90;;;;;;5006413;28;20045;-77
2022/05/24 02:44:02;;;;;;;70.10;44.03;;;12.80;99.90;;;;;;4975999;28;20045;-79
2022/05/24 02:46:33;;;;;;;64.18;41.17;;;12.80;99.90;;;;;;4993770;28;20049;-77
2022/05/24 02:49:00;;;;;;;65.10;42.05;;;12.70;99.90;;;;;;4987975;28;20550;-77
2022/05/24 02:51:30;;;;;;;70.93;43.90;;;12.80;99.90;;;;;;4987263;28;20057;-77
2022/05/24 02:53:57;;;;;;;66.63;41.63;;;12.80;99.90;;;;;;5022013;28;20050;-76
2022/05/24 02:56:24;;;;;;;64.95;39.13;;;12.80;99.90;;;;;;5004929;28;20056;-77
2022/05/24 02:58:55;;;;;;;65.60;40.80;;;12.80;99.90;;;;;;5005347;28;20076;-77
2022/05/24 03:01:29;;;;;;;63.03;38.33;;;12.80;99.90;;;;;;5002700;28;20057;-77
2022/05/24 03:03:57;;;;;;;62.53;36.53;;;12.80;99.90;;;;;;5006075;28;20050;-77
2022/05/24 03:06:28;;;;;;;61.22;37.17;;;12.80;99.90;;;;;;5005188;28;20509;-78
2022/05/24 03:09:36;;;;;;;59.35;36.10;;;12.80;99.90;;;;;;5008378;28;20049;-78
2022/05/24 03:14:56;;;;;;;57.20;34.75;;;12.90;99.90;;;;;;4990784;28;20050;-77
2022/05/24 03:17:24;;;;;;;53.25;32.47;;;12.80;99.90;;;;;;5005385;28;20141;-78
2022/05/24 03:19:52;;;;;;;55.55;33.38;;;12.80;99.90;;;;;;5010800;28;20049;-78
2022/05/24 03:22:19;;;;;;;53.80;31.08;;;12.80;99.90;;;;;;5008270;28;20050;-77
2022/05/24 03:24:46;;;;;;;48.60;30.05;;;12.80;99.90;;;;;;4998048;28;20461;-77
2022/05/24 03:27:15;;;;;;;47.42;29.73;;;12.70;99.90;;;;;;5008470;28;20049;-77
2022/05/24 03:29:42;;;;;;;41.58;26.33;;;12.80;99.90;;;;;;5008305;23;20255;-73
2022/05/24 03:32:11;;;;;;;41.15;27.00;;;12.80;99.90;;;;;;4997407;28;20045;-72
2022/05/24 03:34:41;;;;;;;41.35;25.48;;;12.90;99.90;;;;;;4982332;28;20047;-72
2022/05/24 03:37:09;;;;;;;41.17;25.48;;;12.90;99.90;;;;;;4986375;28;20054;-71
2022/05/24 03:39:36;;;;;;;40.58;25.65;;;12.90;99.90;;;;;;5003285;28;20124;-73
2022/05/24 03:42:03;;;;;;;39.60;24.95;;;12.90;99.90;;;;;;5002879;28;20677;-72
2022/05/24 03:44:30;;;;;;;39.83;24.00;;;13.00;99.90;;;;;;5001949;28;20049;-73
2022/05/24 03:46:58;;;;;;;33.38;22.85;;;12.90;99.90;;;;;;5009580;28;20131;-73
2022/05/24 03:49:24;;;;;;;35.42;24.25;;;12.90;99.90;;;;;;5001317;28;20054;-73
2022/05/24 03:51:51;;;;;;;32.92;23.33;;;13.00;99.90;;;;;;5001022;28;20057;-74
2022/05/24 03:54:18;;;;;;;36.53;21.80;;;13.00;99.90;;;;;;5001698;28;20054;-75
2022/05/24 03:59:31;;;;;;;35.95;23.10;;;13.10;99.90;;;;;;5001015;28;20141;-73
2022/05/24 04:01:58;;;;;;;30.35;22.15;;;13.10;99.90;;;;;;5009400;28;20104;-74
2022/05/24 04:04:25;;;;;;;32.97;22.65;;;13.20;99.90;;;;;;5018044;28;20111;-73
2022/05/24 04:06:52;;;;;;;34.58;21.95;;;13.20;99.90;;;;;;5019492;28;20127;-73
2022/05/24 04:09:19;;;;;;;31.65;22.30;;;13.20;99.90;;;;;;5021292;28;20045;-73
2022/05/24 04:11:45;;;;;;;32.58;21.98;;;13.30;99.90;;;;;;5021543;28;20132;-74
2022/05/24 04:14:12;;;;;;;30.77;22.00;;;13.30;99.90;;;;;;4996120;28;20093;-72
2022/05/24 04:16:39;;;;;;;32.28;21.55;;;13.30;99.90;;;;;;5012936;28;20100;-73
2022/05/24 04:19:06;;;;;;;30.83;21.73;;;13.40;99.90;;;;;;5021656;28;20077;-74
2022/05/24 04:21:32;;;;;;;31.60;22.75;;;13.40;99.90;;;;;;5019740;28;20080;-74
2022/05/24 04:23:59;;;;;;;33.33;22.90;;;13.40;99.90;;;;;;5004810;28;20081;-73
2022/05/24 04:26:26;;;;;;;38.60;24.42;;;13.40;99.90;;;;;;4999908;28;20046;-73
2022/05/24 04:28:53;;;;;;;37.65;25.10;;;13.40;99.90;;;;;;5005546;28;20108;-74
2022/05/24 04:31:20;;;;;;;34.00;25.00;;;13.40;99.90;;;;;;5011629;28;20063;-73
2022/05/24 04:33:47;;;;;;;36.50;24.67;;;13.40;99.90;;;;;;5004996;28;20124;-72
2022/05/24 04:36:14;;;;;;;35.80;25.10;;;13.40;99.90;;;;;;4988359;28;20555;-72
2022/05/24 04:38:41;;;;;;;36.63;25.40;;;13.40;99.90;;;;;;5006203;28;20073;-73
2022/05/24 04:43:54;;;;;;;38.33;26.77;;;13.30;99.90;;;;;;5008126;28;20504;-73
2022/05/24 04:46:20;;;;;;;37.55;26.15;;;13.40;99.90;;;;;;5013330;28;20517;-74
2022/05/24 04:48:47;;;;;;;33.65;24.90;;;13.40;99.90;;;;;;5024996;28;20048;-73
2022/05/24 04:51:14;;;;;;;37.13;24.63;;;13.30;99.90;;;;;;5024984;28;20076;-73
2022/05/24 04:53:41;;;;;;;38.28;26.73;;;13.30;99.90;;;;;;5018226;28;20145;-73
2022/05/24 04:56:08;;;;;;;31.50;23.63;;;13.30;99.90;;;;;;5004697;28;20057;-72
2022/05/24 04:58:35;;;;;;;38.33;25.70;;;13.40;99.90;;;;;;5004564;28;20141;-74
2022/05/24 05:01:02;;;;;;;40.45;26.52;;;13.40;99.90;;;;;;5011116;28;20107;-72
2022/05/24 05:03:29;;;;;;;36.22;26.67;;;13.50;99.90;;;;;;5015740;28;20041;-74
2022/05/24 05:05:56;;;;;;;38.45;27.60;;;13.40;99.90;;;;;;5018935;28;20046;-73
2022/05/24 05:08:24;;;;;;;37.65;26.30;;;13.50;99.90;;;;;;4992967;28;20046;-73
2022/05/24 05:10:51;;;;;;;35.92;25.25;;;13.60;99.90;;;;;;5003407;28;20065;-74
2022/05/24 05:13:18;;;;;;;30.23;24.38;;;13.70;99.90;;;;;;5007320;28;20050;-73
2022/05/24 05:15:45;;;;;;;31.60;26.92;;;13.80;99.90;;;;;;5005936;28;20065;-74
2022/05/24 05:18:13;;;;;;;32.45;25.02;;;13.80;99.90;;;;;;5009109;28;20477;-74
2022/05/24 05:20:41;;;;;;;32.40;26.40;;;13.90;99.90;;;;;;5003690;28;20107;-73
2022/05/24 05:23:12;;;;;;;34.60;26.80;;;14.00;99.90;;;;;;5002958;28;20100;-73
2022/05/24 05:25:41;;;;;;;31.88;27.20;;;13.90;99.90;;;;;;5001876;28;20038;-73
2022/05/24 05:28:08;;;;;;;33.35;27.42;;;14.00;99.90;;;;;;4988733;28;20046;-74
2022/05/24 05:33:20;;;;;;;34.53;27.40;;;14.10;99.90;;;;;;5015725;28;20132;-74
2022/05/24 05:35:49;;;;;;;30.25;26.35;;;14.20;99.90;;;;;;5013278;28;20046;-73
2022/05/24 05:38:17;;;;;;;29.98;26.15;;;14.20;99.90;;;;;;5002959;28;20042;-75
2022/05/24 05:40:44;;;;;;;29.55;25.30;;;14.20;99.90;;;;;;5005624;28;20046;-73
2022/05/24 05:43:11;;;;;;;32.35;25.23;;;14.20;99.90;;;;;;5008920;28;20324;-74
2022/05/24 05:45:38;;;;;;;28.85;24.10;;;14.10;99.90;;;;;;5003578;28;20083;-73
2022/05/24 05:48:05;;;;;;;29.13;24.38;;;14.00;99.90;;;;;;5007196;28;20053;-73
2022/05/24 05:50:32;;;;;;;32.22;24.27;;;14.00;99.90;;;;;;5002958;28;20042;-72
2022/05/24 05:53:03;;;;;;;33.67;24.20;;;13.90;99.90;;;;;;5000568;28;20077;-73
2022/05/24 05:55:31;;;;;;;31.00;24.33;;;13.90;99.90;;;;;;5019339;28;20111;-72
2022/05/24 05:57:58;;;;;;;31.33;25.10;;;13.90;99.90;;;;;;5002914;28;20096;-73
2022/05/24 06:00:25;;;;;;;30.35;23.50;;;13.90;99.90;;;;;;4993848;28;20189;-73
2022/05/24 06:02:51;;;;;;;27.52;23.00;;;13.90;99.90;;;;;;5014906;28;20157;-73
2022/05/24 06:05:24;;;;;;;29.75;23.23;;;13.90;99.90;;;;;;5022697;28;20209;-73
2022/05/24 06:07:51;;;;;;;27.45;21.88;;;13.80;99.90;;;;;;5024223;28;20494;-73
2022/05/24 06:10:18;;;;;;;30.30;22.63;;;13.80;99.90;;;;;;5023328;28;20049;-73
2022/05/24 06:12:44;;;;;;;27.70;20.90;;;13.80;99.90;;;;;;5009885;28;20045;-73
2022/05/24 06:15:11;;;;;;;12.88;10.43;;;13.70;99.90;;;;;;5001061;28;20104;-74
2022/05/24 06:17:46;;;;;;;13.07;9.18;;;13.40;99.90;;;;;;5014292;28;20057;-73
2022/05/24 06:20:22;;;;;;;15.30;11.35;;;13.10;99.90;;;;;;5018070;28;20520;-73
2022/05/24 06:22:52;;;;;;;20.08;12.60;;;12.90;99.90;;;;;;5003719;28;20420;-72
2022/05/24 06:25:21;;;;;;;20.27;14.07;;;12.80;99.90;;;;;;5002073;28;20054;-73
2022/05/24 06:27:49;;;;;;;15.68;11.52;;;12.60;99.90;;;;;;4985841;28;20139;-72
2022/05/24 06:30:16;;;;;;;17.88;10.32;;;12.30;99.90;;;;;;5003514;28;20511;-72
2022/05/24 06:32:43;;;;;;;14.52;9.38;;;12.10;99.90;;;;;;5014275;28;20045;-74
2022/05/24 06:35:10;;;;;;;13.77;10.25;;;11.80;99.90;;;;;;5013142;28;20519;-73
2022/05/24 06:37:37;;;;;;;14.10;9.75;;;11.80;99.90;;;;;;5003165;28;20085;-73
2022/05/24 06:40:04;;;;;;;17.45;10.63;;;11.70;99.90;;;;;;5001147;28;20049;-73
2022/05/24 06:42:31;;;;;;;17.98;11.77;;;11.60;99.90;;;;;;4993664;28;20185;-73
2022/05/24 06:44:58;;;;;;;15.45;9.77;;;11.50;99.90;;;;;;5001173;28;20050;-74
2022/05/24 06:47:25;;;;;;;19.77;12.85;;;11.40;99.90;;;;;;5013028;28;20033;-73
2022/05/24 06:49:51;;;;;;;16.88;11.35;;;11.40;99.90;;;;;;5022890;28;20385;-72
2022/05/24 06:52:18;;;;;;;21.75;11.35;;;11.40;99.90;;;;;;5016706;28;20069;-72
2022/05/24 06:54:45;;;;;;;22.63;12.18;;;11.30;99.90;;;;;;4981697;28;20038;-73
2022/05/24 06:57:12;;;;;;;17.45;9.07;;;11.30;99.90;;;;;;4982657;28;20054;-73
2022/05/24 07:02:25;;;;;;;17.42;11.82;;;11.20;99.90;;;;;;5010108;28;20137;-72
2022/05/24 07:05:00;;;;;;;25.35;13.50;;;11.20;99.90;;;;;;5023894;28;20057;-72
2022/05/24 07:07:28;;;;;;;;;;;11.20;99.90;;;;;;5013031;28;20053;-73
2022/05/24 07:09:55;;;;;;;20.45;13.20;;;11.20;99.90;;;;;;5004404;28;20062;-74
2022/05/24 07:12:22;;;;;;;23.30;12.05;;;11.30;99.90;;;;;;5005423;28;20072;-74
2022/05/24 07:14:50;;;;;;;24.80;15.20;;;11.30;99.90;;;;;;4999040;28;20054;-73
2022/05/24 07:17:17;;;;;;;27.02;15.10;;;11.40;99.90;;;;;;5010439;28;20054;-73
2022/05/24 07:19:45;;;;;;;28.75;17.17;;;11.40;99.90;;;;;;5009128;23;20748;-76
2022/05/24 07:22:13;;;;;;;34.50;18.10;;;11.60;99.90;;;;;;5005188;28;20056;-77
2022/05/24 07:24:40;;;;;;;26.25;16.40;;;11.60;99.90;;;;;;5005324;28;20045;-77
2022/05/24 07:27:11;;;;;;;28.55;16.40;;;11.60;99.90;;;;;;4988177;28;20137;-77
2022/05/24 07:29:40;;;;;;;24.88;17.23;;;11.70;99.90;;;;;;4988366;28;20053;-77
2022/05/24 07:32:08;;;;;;;25.30;16.15;;;11.70;99.90;;;;;;5011898;28;20073;-77
2022/05/24 07:34:36;;;;;;;23.58;16.67;;;11.80;99.90;;;;;;5011334;28;20050;-77
2022/05/24 07:37:07;;;;;;;26.25;16.45;;;11.80;99.90;;;;;;4986827;28;20124;-77
2022/05/24 07:39:34;;;;;;;29.27;17.40;;;11.80;99.90;;;;;;5005551;28;20442;-76
2022/05/24 07:47:43;;;;;;;26.30;15.02;;;11.80;99.90;;;;;;5015310;28;20148;-77
2022/05/24 07:50:10;;;;;;;17.33;9.80;;;11.80;99.90;;;;;;5024063;28;20119;-77
2022/05/24 07:52:37;;;;;;;18.83;9.93;;;11.50;99.90;;;;;;5024758;28;20045;-77
2022/05/24 07:55:04;;;;;;;16.77;8.50;;;11.50;99.90;;;;;;5013186;28;20069;-77
2022/05/24 07:57:31;;;;;;;16.02;8.65;;;11.40;99.90;;;;;;4988311;28;20053;-77
2022/05/24 08:00:05;;;;;;;9.45;7.10;;;11.40;99.90;;;;;;5003511;28;20054;-76
2022/05/24 08:02:38;;;;;;;9.17;6.77;;;11.40;99.90;;;;;;5009184;28;20417;-77
2022/05/24 08:05:06;;;;;;;15.40;7.43;;;11.40;99.90;;;;;;4998628;28;20060;-77
2022/05/24 08:07:33;;;;;;;17.58;8.00;;;11.40;99.90;;;;;;5004402;28;20165;-77
2022/05/24 08:10:00;;;;;;;11.75;7.03;;;11.40;99.90;;;;;;5005249;28;20501;-77
2022/05/24 08:12:27;;;;;;;14.98;7.82;;;11.40;99.90;;;;;;5017809;28;20145;-77
2022/05/24 08:14:53;;;;;;;14.77;8.80;;;11.40;99.90;;;;;;5004373;28;20096;-77
2022/05/24 08:17:20;;;;;;;13.40;7.82;;;11.40;99.90;;;;;;4999100;28;20050;-77
2022/05/24 08:19:47;;;;;;;13.35;7.95;;;11.60;99.90;;;;;;5024112;28;20083;-77
2022/05/24 08:22:13;;;;;;;10.57;7.47;;;11.70;99.90;;;;;;5025212;28;20065;-77
2022/05/24 08:24:40;;;;;;;12.30;7.03;;;11.80;99.90;;;;;;5000357;28;20100;-77
2022/05/24 08:27:11;;;;;;;24.83;10.20;;;11.80;99.90;;;;;;5005974;28;20054;-80
2022/05/24 08:29:37;;;;;;;10.85;6.60;;;12.10;99.90;;;;;;5007210;28;20050;-77
2022/05/24 08:32:04;;;;;;;8.85;6.40;;;12.30;99.90;;;;;;5014422;28;20038;-78
2022/05/24 08:34:32;;;;;;;18.88;8.20;;;12.40;99.90;;;;;;5025575;28;20045;-77
2022/05/24 08:36:59;;;;;;;10.32;6.40;;;12.80;99.90;;;;;;5012615;28;20049;-78
2022/05/24 08:39:27;;;;;;;10.05;6.13;;;12.80;99.90;;;;;;5008380;28;20037;-77
2022/05/24 08:42:21;;;;;;;8.05;5.75;;;12.60;99.90;;;;;;5019012;28;20190;-76
2022/05/24 08:50:34;;;;;;;14.70;7.50;;;11.80;99.90;;;;;;5047789;28;20036;-77
2022/05/24 08:53:06;;;;;;;12.75;7.63;;;11.80;99.90;;;;;;5031502;28;20060;-77
2022/05/24 08:55:39;;;;;;;12.05;7.32;;;11.80;99.90;;;;;;5036283;28;20047;-77
2022/05/24 08:58:23;;;;;;;17.83;7.40;;;11.90;99.90;;;;;;5004795;28;20099;-77
2022/05/24 09:00:50;;;;;;;15.93;8.18;;;12.00;99.90;;;;;;4991021;28;20049;-77
2022/05/24 09:03:22;;;;;;;15.98;7.82;;;12.10;99.90;;;;;;5012671;28;20049;-78
2022/05/24 09:05:57;;;;;;;16.10;8.20;;;12.20;99.90;;;;;;5002827;28;20108;-78
2022/05/24 09:08:41;;;;;;;15.13;8.50;;;12.50;99.90;;;;;;5001738;28;20049;-77
2022/05/24 09:11:14;;;;;;;15.20;9.02;;;12.60;99.90;;;;;;4986490;28;20050;-78
2022/05/24 09:14:02;;;;;;;7.43;6.68;;;12.60;99.90;;;;;;5004106;28;20049;-77
2022/05/24 09:16:59;;;;;;;12.63;8.27;;;12.70;99.90;;;;;;4997877;28;20046;-77
2022/05/24 09:19:34;;;;;;;8.90;7.03;;;12.80;99.90;;;;;;5003570;28;20439;-77
2022/05/24 09:22:02;;;;;;;9.52;7.65;;;13.10;99.90;;;;;;4986662;28;20034;-78
2022/05/24 09:24:43;;;;;;;6.93;6.10;;;13.20;99.90;;;;;;4997763;28;20069;-77
2022/05/24 09:27:23;;;;;;;9.98;6.25;;;13.40;99.90;;;;;;5005814;28;20048;-77
2022/05/24 09:29:55;;;;;;;9.18;7.93;;;13.50;99.90;;;;;;5011532;23;20099;-69
2022/05/24 09:32:42;;;;;;;11.32;7.60;;;13.50;99.90;;;;;;4998622;28;20046;-69
2022/05/24 09:35:08;;;;;;;12.20;10.35;;;13.50;99.90;;;;;;4998288;28;20073;-70
2022/05/24 09:37:36;;;;;;;9.30;7.55;;;13.60;99.90;;;;;;4981495;28;20715;-71
2022/05/24 09:40:15;;;;;;;10.23;9.55;;;14.10;99.90;;;;;;4973610;28;20058;-71
2022/05/24 09:42:42;;;;;;;11.95;11.15;;;14.10;99.90;;;;;;4973445;28;20043;-70
2022/05/24 09:45:17;;;;;;;15.80;14.30;;;14.10;99.90;;;;;;4986085;28;20134;-69
2022/05/24 09:47:43;;;;;;;16.17;15.07;;;14.00;99.90;;;;;;4996498;28;20046;-70
2022/05/24 09:50:18;;;;;;;13.70;12.63;;;13.90;99.90;;;;;;4980500;28;20134;-71
2022/05/24 09:53:10;;;;;;;15.00;14.10;;;14.30;99.90;;;;;;4968295;28;20390;-72
2022/05/24 09:55:37;;;;;;;17.65;16.25;;;14.40;99.90;;;;;;4969314;28;20047;-72
2022/05/24 09:58:25;;;;;;;16.80;15.68;;;14.40;99.90;;;;;;4965702;28;20109;-72
2022/05/24 10:01:08;;;;;;;18.00;16.70;;;14.50;99.90;;;;;;4956379;28;20142;-72
2022/05/24 10:03:41;;;;;;;16.27;15.18;;;14.50;99.90;;;;;;4991613;28;20074;-72
2022/05/24 10:06:20;;;;;;;18.05;16.83;;;14.50;99.90;;;;;;4982708;28;20310;-72
2022/05/24 10:08:59;;;;;;;18.08;16.88;;;14.30;99.90;;;;;;4996706;28;20101;-72
2022/05/24 10:11:47;;;;;;;18.40;17.13;;;14.10;99.90;;;;;;4965676;28;20047;-72
2022/05/24 10:14:25;;;;;;;19.05;17.85;;;14.30;99.90;;;;;;4966453;28;20054;-72
2022/05/24 10:17:44;;;;;;;20.70;19.40;;;14.60;99.90;;;;;;4987958;28;20065;-69
2022/05/24 10:20:50;;;;;;;20.13;18.92;;;14.70;99.90;;;;;;4931012;28;20426;-72
2022/05/24 10:23:40;;;;;;;20.85;19.40;;;14.60;99.90;;;;;;4946495;28;20043;-72
2022/05/24 10:26:26;;;;;;;18.75;17.45;;;14.40;99.90;;;;;;4943767;28;20109;-69
2022/05/24 10:29:28;;;;;;;18.77;17.77;;;14.40;99.90;;;;;;4946303;28;20102;-72
2022/05/24 10:31:57;;;;;;;18.92;17.73;;;14.30;99.90;;;;;;4969028;28;20113;-71
2022/05/24 10:40:32;;;;;;;19.20;18.02;;;14.00;99.90;;;;;;4953399;28;20113;-71
2022/05/24 10:43:39;;;;;;;19.08;17.77;;;13.80;99.90;;;;;;4968628;28;20142;-71
2022/05/24 10:46:16;;;;;;;18.38;17.27;;;13.70;99.90;;;;;;4964153;28;20046;-71
2022/05/24 10:49:02;;;;;;;18.98;17.98;;;13.70;99.90;;;;;;4978079;28;20051;-72
2022/05/24 10:51:37;;;;;;;18.52;17.63;;;13.90;99.90;;;;;;4977424;28;20049;-72
2022/05/24 10:54:23;;;;;;;19.60;18.60;;;14.00;99.90;;;;;;4959677;28;20140;-71
2022/05/24 10:57:14;;;;;;;20.50;19.40;;;14.00;99.90;;;;;;4962894;28;20074;-72
2022/05/24 11:00:05;;;;;;;19.05;18.05;;;13.90;99.90;;;;;;4964158;28;20054;-71
2022/05/24 11:02:35;;;;;;;20.05;18.85;;;14.00;99.90;;;;;;4963368;28;20055;-72
2022/05/24 11:05:29;;;;;;;20.75;19.65;;;14.10;99.90;;;;;;4965262;28;20665;-70
2022/05/24 11:08:17;;;;;;;21.40;20.30;;;14.20;99.90;;;;;;4962291;28;20773;-72
2022/05/24 11:10:48;;;;;;;22.10;20.80;;;14.50;99.90;;;;;;4964270;28;20113;-72
2022/05/24 11:13:34;;;;;;;21.58;20.27;;;14.80;99.90;;;;;;4965568;28;20179;-72
2022/05/24 11:16:07;;;;;;;22.08;20.95;;;15.00;99.90;;;;;;4955612;28;20038;-70
2022/05/24 11:18:41;;;;;;;22.67;21.33;;;15.00;99.90;;;;;;4962679;28;20059;-72
2022/05/24 11:21:17;;;;;;;22.55;21.08;;;14.70;99.90;;;;;;4962528;28;20453;-72
2022/05/24 11:24:01;;;;;;;23.80;22.40;;;14.70;99.90;;;;;;4961647;28;20667;-72
2022/05/24 11:26:32;;;;;;;23.48;21.50;;;14.60;99.90;;;;;;4971198;28;20054;-73
2022/05/24 11:29:33;;;;;;;22.75;21.55;;;14.50;99.90;;;;;;4944769;28;20506;-71
2022/05/24 11:32:09;;;;;;;22.45;21.20;;;14.70;99.90;;;;;;4952468;28;20312;-73
2022/05/24 11:34:48;;;;;;;22.17;20.85;;;14.90;99.90;;;;;;4960907;28;20043;-74
2022/05/24 11:37:26;;;;;;;;;;;15.20;99.90;;;;;;4963131;28;20053;-72
2022/05/24 11:39:53;;;;;;;22.25;20.95;;;15.40;99.90;;;;;;4978506;28;19961;-71
2022/05/24 11:42:26;;;;;;;23.23;21.83;;;15.30;99.90;;;;;;4963603;28;20181;-70
2022/05/24 11:44:55;;;;;;;22.65;21.15;;;15.40;99.90;;;;;;4963033;28;20058;-72
2022/05/24 11:47:35;;;;;;;22.48;20.90;;;15.30;99.90;;;;;;4985979;28;20042;-73
2022/05/24 11:50:20;;;;;;;23.02;21.83;;;15.10;99.90;;;;;;4964552;28;20047;-72
2022/05/24 11:53:02;;;;;;;22.25;20.95;;;15.00;99.90;;;;;;4963224;28;20495;-72
2022/05/24 11:55:54;;;;;;;22.63;21.33;;;14.60;99.90;;;;;;4965156;28;20043;-74
2022/05/24 11:58:21;;;;;;;22.95;21.55;;;14.60;99.90;;;;;;4982925;28;20436;-71
2022/05/24 12:01:07;;;;;;;24.25;22.67;;;14.80;99.90;;;;;;4984201;28;20054;-72
2022/05/24 12:09:20;;;;;;;24.48;22.88;;;15.20;99.90;;;;;;4962562;28;20050;-71
2022/05/24 12:11:48;;;;;;;24.77;23.15;;;15.30;99.90;;;;;;4962429;28;20783;-73
2022/05/24 12:14:35;;;;;;;23.75;22.27;;;15.50;99.90;;;;;;4962851;28;20093;-73
2022/05/24 12:17:02;;;;;;;23.25;21.95;;;15.60;99.90;;;;;;4969889;28;20227;-73
2022/05/24 12:19:35;;;;;;;25.27;23.17;;;16.00;99.90;;;;;;4977679;28;20137;-71
2022/05/24 12:22:08;;;;;;;23.23;21.88;;;16.40;99.90;;;;;;4977030;28;20050;-72
2022/05/24 12:24:41;;;;;;;22.38;20.88;;;17.10;99.90;;;;;;4959798;28;20341;-72
2022/05/24 12:27:29;;;;;;;23.58;22.30;;;17.20;99.90;;;;;;4962905;28;20560;-71
2022/05/24 12:30:00;;;;;;;22.35;21.00;;;16.90;99.90;;;;;;4977213;28;20043;-72
2022/05/24 12:32:33;;;;;;;23.08;21.67;;;16.70;99.90;;;;;;4975234;28;20473;-73
2022/05/24 12:35:11;;;;;;;24.98;23.58;;;16.20;99.90;;;;;;4958694;28;20055;-72
2022/05/24 12:37:57;;;;;;;23.20;21.80;;;16.40;99.90;;;;;;4976481;28;20134;-71
2022/05/24 12:40:29;;;;;;;24.52;23.10;;;16.80;99.90;;;;;;4952003;28;20133;-71
2022/05/24 12:43:00;;;;;;;22.92;21.73;;;16.90;99.90;;;;;;4964004;28;20109;-72
2022/05/24 12:45:30;;;;;;;24.70;23.25;;;17.00;99.90;;;;;;4966393;28;20058;-73
2022/05/24 12:47:58;;;;;;;24.20;22.67;;;17.00;99.90;;;;;;4968659;28;20070;-73
2022/05/24 12:50:38;;;;;;;22.58;21.08;;;17.10;99.90;;;;;;4967298;28;20047;-71
2022/05/24 12:53:08;;;;;;;22.80;21.50;;;17.10;99.90;;;;;;4962389;28;20047;-73
2022/05/24 12:55:57;;;;;;;21.85;20.55;;;16.90;99.90;;;;;;4982014;28;20121;-71
2022/05/24 12:58:27;;;;;;;22.67;21.17;;;16.90;99.90;;;;;;4978581;28;20054;-70
2022/05/24 13:01:18;;;;;;;23.30;21.65;;;16.60;99.90;;;;;;4984185;28;20047;-71
2022/05/24 13:04:09;;;;;;;22.80;21.33;;;16.30;99.90;;;;;;4966999;28;20418;-73
2022/05/24 13:07:21;;;;;;;22.83;21.52;;;16.40;99.90;;;;;;4975739;28;20416;-74
2022/05/24 13:09:49;;;;;;;22.75;21.17;;;16.80;99.90;;;;;;4963933;28;20192;-72
2022/05/24 13:12:17;;;;;;;22.10;20.80;;;17.10;99.90;;;;;;4970648;28;20489;-73
2022/05/24 13:14:56;;;;;;;22.40;21.25;;;17.10;99.90;;;;;;4964109;28;20074;-73
2022/05/24 13:17:25;;;;;;;20.67;19.58;;;17.70;99.90;;;;;;4967363;28;20046;-71
2022/05/24 13:19:57;;;;;;;21.27;20.08;;;18.20;99.90;;;;;;4996736;23;20423;-71
2022/05/24 13:22:39;;;;;;;21.63;20.08;;;18.60;99.90;;;;;;4979972;28;20061;-72
2022/05/24 13:25:16;;;;;;;21.85;20.48;;;18.60;99.90;;;;;;4983055;28;20201;-72
2022/05/24 13:27:49;;;;;;;22.00;20.55;;;18.30;99.90;;;;;;4987671;28;20046;-71
2022/05/24 13:35:51;;;;;;;22.80;21.33;;;18.40;99.90;;;;;;4989998;28;20145;-73
2022/05/24 13:38:26;;;;;;;21.58;20.30;;;18.50;99.90;;;;;;4988091;28;20057;-72
2022/05/24 13:40:58;;;;;;;20.42;19.13;;;18.60;99.90;;;;;;4991966;28;20066;-71
2022/05/24 13:43:36;;;;;;;20.83;19.80;;;18.40;99.90;;;;;;5019597;28;20394;-71
2022/05/24 13:46:07;;;;;;;21.55;20.08;;;18.10;99.90;;;;;;4986880;28;20334;-72